Linda — OJML — position and weather

sailwx.info

Track history (hours):
 
Tides and Currents Weather Stations Pressure Air Temp Water Temp Dewpoint Dewpoint Depression Visibility Wind Speed Wind Dir Waves Ship Positions

Linda

Last reported at 2014-Jul-30 06:05 UTC. Time now 2014-Aug-02 00:20 UTC.
Position N 59°56' E 021°39'.

Length 141 m; draft 5.3 m.

Type: Cargo ship. MMSI: 230984000.

Date/timePositionNaut miles runAvg speedWind from/ knotsBaromVisibWave heightAir tempDewpointWater temp
2014-Jul-30 06:05N 59°56' E 021°39'814.7
2014-Jul-30 05:33N 59°52' E 021°26'1212.4
2014-Jul-30 04:34N 59°39' E 021°25'1313.3
2014-Jul-30 03:33N 59°36' E 021°51'1413.5
2014-Jul-30 02:33N 59°36' E 022°18'1713.5
2014-Jul-30 01:17N 59°37' E 022°52'1013.8
2014-Jul-30 00:33N 59°39' E 023°11'1313.5
2014-Jul-29 23:33N 59°42' E 023°37'1413.8
2014-Jul-29 22:31N 59°46' E 024°05'1414.0
2014-Jul-29 21:32N 59°50' E 024°31'2913.2
2014-Jul-29 19:22N 60°09' E 025°12'2 0.2
2014-Jul-29 11:09N 60°08' E 025°12'1118.0
2014-Jul-29 10:33N 59°58' E 025°03'1717.4
2014-Jul-29 09:33N 59°46' E 024°38'4217.6
2014-Jul-29 07:11N 59°31' E 023°21'1317.7
2014-Jul-29 06:25N 59°27' E 022°56'1717.4
2014-Jul-29 05:27N 59°19' E 022°27'5316.8
2014-Jul-29 02:17N 58°33' E 021°33'243 5.3
2014-Jul-27 04:05N 55°49' E 016°02'815.7
2014-Jul-27 03:33N 55°45' E 015°49'1616.1
2014-Jul-27 02:33N 55°37' E 015°24'1616.2
2014-Jul-27 01:33N 55°29' E 014°59'1616.0
2014-Jul-27 00:33N 55°20' E 014°36'1615.5
2014-Jul-26 23:33N 55°11' E 014°14'1615.6
2014-Jul-26 22:34N 55°12' E 013°47'1715.7
2014-Jul-26 21:29N 55°14' E 013°17'1415.4
2014-Jul-26 20:33N 55°15' E 012°52'1212.1
2014-Jul-26 19:34N 55°25' E 012°40'1312.9
2014-Jul-26 18:34N 55°37' E 012°42'1414.4
2014-Jul-26 17:33N 55°52' E 012°41'1413.7
2014-Jul-26 16:34N 56°05' E 012°35'1615.5
2014-Jul-26 15:34N 56°17' E 012°17'1615.9
2014-Jul-26 14:33N 56°30' E 012°00'1715.7
2014-Jul-26 13:30N 56°46' E 011°52'1516.2
2014-Jul-26 12:34N 57°00' E 011°42'1616.0
2014-Jul-26 11:33N 57°15' E 011°32'1615.6
2014-Jul-26 10:34N 57°29' E 011°20'1615.9
2014-Jul-26 09:33N 57°40' E 010°58'1514.5
2014-Jul-26 08:33N 57°47' E 010°34'1615.6
2014-Jul-26 07:34N 57°41' E 010°07'1615.9
2014-Jul-26 06:32N 57°33' E 009°40'1616.1
2014-Jul-26 05:32N 57°24' E 009°15'13218.7
2014-Jul-25 22:29N 55°42' E 006°45'2711.6
2014-Jul-25 20:06N 55°19' E 006°19'2 3.3
2014-Jul-25 19:26N 55°21' E 006°21'1415.9
2014-Jul-25 18:33N 55°09' E 006°09'1616.5
2014-Jul-25 17:33N 54°55' E 005°54'1716.6
2014-Jul-25 16:34N 54°41' E 005°38'1616.1
2014-Jul-25 15:33N 54°27' E 005°23'1615.9
2014-Jul-25 14:33N 54°14' E 005°08'1615.7
2014-Jul-25 13:33N 53°60' E 004°57'1616.1
2014-Jul-25 12:33N 53°44' E 004°52'1515.4
2014-Jul-25 11:33N 53°29' E 004°45'1514.9
2014-Jul-25 10:32N 53°15' E 004°35'1514.9
2014-Jul-25 09:33N 53°02' E 004°23'1515.1
2014-Jul-25 08:34N 52°49' E 004°11'1515.2
2014-Jul-25 07:33N 52°38' E 003°55'1515.0
2014-Jul-25 06:34N 52°27' E 003°38'3 3.4
2014-Jul-25 05:33N 52°26' E 003°32'3 2.8
2014-Jul-25 04:33N 52°26' E 003°37'1915.2
2014-Jul-25 03:18N 52°08' E 003°27'1216.4
2014-Jul-25 02:33N 51°56' E 003°22'1414.2
2014-Jul-25 01:33N 51°42' E 003°18'1616.1
2014-Jul-25 00:34N 51°28' E 003°31'1111.4
2014-Jul-24 23:34N 51°22' E 003°46'3 3.2
2014-Jul-24 22:34N 51°19' E 003°50'4 4.3
2014-Jul-24 21:33N 51°15' E 003°49'5 5.3
2014-Jul-24 20:33N 51°10' E 003°47'0 0.0
2014-Jul-24 19:32N 51°10' E 003°47'0 0.0
2014-Jul-24 18:32N 51°10' E 003°47'0 0.0
2014-Jul-24 17:32N 51°10' E 003°47'0 0.0
2014-Jul-24 16:32N 51°10' E 003°47'0 0.0
2014-Jul-24 15:32N 51°10' E 003°47'0 0.0
2014-Jul-24 14:32N 51°10' E 003°47'0 0.0
2014-Jul-24 13:32N 51°10' E 003°47'0 0.0
2014-Jul-24 12:32N 51°10' E 003°47'0 0.0
2014-Jul-24 11:26N 51°10' E 003°47'0 0.0
2014-Jul-24 10:32N 51°10' E 003°47'0 0.0
2014-Jul-24 09:32N 51°10' E 003°47'0 0.0
2014-Jul-24 08:32N 51°10' E 003°47'0 0.0
2014-Jul-24 07:32N 51°10' E 003°47'0 0.0
2014-Jul-24 06:32N 51°10' E 003°47'0 0.0
2014-Jul-24 05:32N 51°10' E 003°47'0 0.0
2014-Jul-24 04:32N 51°10' E 003°47'2 2.3
2014-Jul-24 03:34N 51°12' E 003°48'7 7.2
2014-Jul-24 02:34N 51°19' E 003°50'1 1.4
2014-Jul-24 01:34N 51°20' E 003°49'1 0.6
2014-Jul-24 00:33N 51°21' E 003°48'8 8.2
2014-Jul-23 23:34N 51°26' E 003°39'1312.6
2014-Jul-23 22:33N 51°24' E 003°19'1817.6
2014-Jul-23 21:33N 51°22' E 002°51'1615.9
2014-Jul-23 20:33N 51°21' E 002°26'1515.2
2014-Jul-23 19:33N 51°23' E 002°02'1515.1
2014-Jul-23 18:33N 51°29' E 001°39'1413.8
2014-Jul-23 17:33N 51°29' E 001°17'1515.2
2014-Jul-23 16:34N 51°29' E 000°53'6 5.1
2014-Jul-23 15:27N 51°26' E 000°44'0 0.0
2014-Jul-23 14:33N 51°26' E 000°44'0 0.0
2014-Jul-23 13:33N 51°26' E 000°44'0 0.0
2014-Jul-23 12:33N 51°26' E 000°44'0 0.0
2014-Jul-23 11:30N 51°26' E 000°44'0 0.0
2014-Jul-23 10:33N 51°26' E 000°44'0 0.0
2014-Jul-23 09:33N 51°26' E 000°44'0 0.0
2014-Jul-23 08:33N 51°26' E 000°44'0 0.0
2014-Jul-23 07:31N 51°26' E 000°44'5 5.7
2014-Jul-23 06:34N 51°29' E 000°52'1616.2
2014-Jul-23 05:33N 51°29' E 001°18'1110.7
2014-Jul-23 04:33N 51°30' E 001°35'1515.2
2014-Jul-23 03:33N 51°44' E 001°44'1615.7
2014-Jul-23 02:33N 51°60' E 001°46'1515.3
2014-Jul-23 01:33N 52°15' E 001°50'1515.2
2014-Jul-23 00:33N 52°30' E 001°54'1514.8
2014-Jul-22 23:34N 52°45' E 001°55'1514.6
2014-Jul-22 22:33N 52°55' E 001°38'1413.7
2014-Jul-22 21:33N 53°06' E 001°24'1414.3
2014-Jul-22 20:33N 53°19' E 001°12'1414.4
2014-Jul-22 19:33N 53°31' E 000°60'1414.2
2014-Jul-22 18:33N 53°43' E 000°47'1414.4
2014-Jul-22 17:33N 53°53' E 000°30'1514.5
2014-Jul-22 16:33N 54°04' E 000°13'1515.1
2014-Jul-22 15:33N 54°15' W 000°05'1515.4
2014-Jul-22 14:33N 54°26' W 000°23'1615.4
2014-Jul-22 13:32N 54°35' W 000°44'1212.7
2014-Jul-22 12:33N 54°40' W 001°05'4 3.5
2014-Jul-22 11:19N 54°36' W 001°09'0 0.0
2014-Jul-22 10:19N 54°36' W 001°09'0 0.0
2014-Jul-22 09:22N 54°36' W 001°09'0 0.0
2014-Jul-22 08:16N 54°36' W 001°09'0 0.0
2014-Jul-22 06:25N 54°36' W 001°09'0 0.0
2014-Jul-22 05:25N 54°36' W 001°09'4 3.1
2014-Jul-22 04:10N 54°40' W 001°08'5 8.6
2014-Jul-22 03:33N 54°43' W 001°01'1812.4
2014-Jul-22 02:03N 54°51' W 000°31'612.4
2014-Jul-22 01:33N 54°54' W 000°22'1312.8
2014-Jul-22 00:33N 54°59' W 000°02'1513.2
2014-Jul-21 23:25N 55°05' E 000°22'1213.6
2014-Jul-21 22:33N 55°10' E 000°40'1413.5
2014-Jul-21 21:33N 55°17' E 001°02'33013.7
2014-Jul-20 21:24N 57°40' E 009°60'1315.6
2014-Jul-20 20:33N 57°44' E 010°23'1514.9
2014-Jul-20 19:33N 57°45' E 010°51'1616.1
2014-Jul-20 18:33N 57°34' E 011°13'1515.3
2014-Jul-20 17:33N 57°22' E 011°30'1615.7
2014-Jul-20 16:33N 57°07' E 011°40'1615.5
2014-Jul-20 15:33N 56°52' E 011°50'1615.8
2014-Jul-20 14:33N 56°38' E 011°58'1615.6
2014-Jul-20 13:33N 56°24' E 012°12'1616.4
2014-Jul-20 12:33N 56°10' E 012°29'1716.5
2014-Jul-20 11:33N 55°56' E 012°43'1515.4
2014-Jul-20 10:33N 55°41' E 012°41'1212.2
2014-Jul-20 09:33N 55°29' E 012°42'1212.4
2014-Jul-20 08:33N 55°17' E 012°48'1616.1
2014-Jul-20 07:33N 55°15' E 013°17'1616.4
2014-Jul-20 06:33N 55°14' E 013°45'  
Track history (hours):
 
Tides and Currents Weather Stations Pressure Air Temp Water Temp Dewpoint Dewpoint Depression Visibility Wind Speed Wind Dir Waves Ship Positions

Linda

Last reported at 2014-Jul-30 06:05 UTC. Time now 2014-Aug-02 00:20 UTC.
Position N 59°56' E 021°39'.

Length 141 m; draft 5.3 m.

Type: Cargo ship. MMSI: 230984000.

Date/timePositionNaut miles runAvg speedWind from/ knotsBaromVisibWave heightAir tempDewpointWater temp
2014-Jul-30 06:05N 59°56' E 021°39'814.7
2014-Jul-30 05:33N 59°52' E 021°26'1212.4
2014-Jul-30 04:34N 59°39' E 021°25'1313.3
2014-Jul-30 03:33N 59°36' E 021°51'1413.5
2014-Jul-30 02:33N 59°36' E 022°18'1713.5
2014-Jul-30 01:17N 59°37' E 022°52'1013.8
2014-Jul-30 00:33N 59°39' E 023°11'1313.5
2014-Jul-29 23:33N 59°42' E 023°37'1413.8
2014-Jul-29 22:31N 59°46' E 024°05'1414.0
2014-Jul-29 21:32N 59°50' E 024°31'2913.2
2014-Jul-29 19:22N 60°09' E 025°12'2 0.2
2014-Jul-29 11:09N 60°08' E 025°12'1118.0
2014-Jul-29 10:33N 59°58' E 025°03'1717.4
2014-Jul-29 09:33N 59°46' E 024°38'4217.6
2014-Jul-29 07:11N 59°31' E 023°21'1317.7
2014-Jul-29 06:25N 59°27' E 022°56'1717.4
2014-Jul-29 05:27N 59°19' E 022°27'5316.8
2014-Jul-29 02:17N 58°33' E 021°33'243 5.3
2014-Jul-27 04:05N 55°49' E 016°02'815.7
2014-Jul-27 03:33N 55°45' E 015°49'1616.1
2014-Jul-27 02:33N 55°37' E 015°24'1616.2
2014-Jul-27 01:33N 55°29' E 014°59'1616.0
2014-Jul-27 00:33N 55°20' E 014°36'1615.5
2014-Jul-26 23:33N 55°11' E 014°14'1615.6
2014-Jul-26 22:34N 55°12' E 013°47'1715.7
2014-Jul-26 21:29N 55°14' E 013°17'1415.4
2014-Jul-26 20:33N 55°15' E 012°52'1212.1
2014-Jul-26 19:34N 55°25' E 012°40'1312.9
2014-Jul-26 18:34N 55°37' E 012°42'1414.4
2014-Jul-26 17:33N 55°52' E 012°41'1413.7
2014-Jul-26 16:34N 56°05' E 012°35'1615.5
2014-Jul-26 15:34N 56°17' E 012°17'1615.9
2014-Jul-26 14:33N 56°30' E 012°00'1715.7
2014-Jul-26 13:30N 56°46' E 011°52'1516.2
2014-Jul-26 12:34N 57°00' E 011°42'1616.0
2014-Jul-26 11:33N 57°15' E 011°32'1615.6
2014-Jul-26 10:34N 57°29' E 011°20'1615.9
2014-Jul-26 09:33N 57°40' E 010°58'1514.5
2014-Jul-26 08:33N 57°47' E 010°34'1615.6
2014-Jul-26 07:34N 57°41' E 010°07'1615.9
2014-Jul-26 06:32N 57°33' E 009°40'1616.1
2014-Jul-26 05:32N 57°24' E 009°15'13218.7
2014-Jul-25 22:29N 55°42' E 006°45'2711.6
2014-Jul-25 20:06N 55°19' E 006°19'2 3.3
2014-Jul-25 19:26N 55°21' E 006°21'1415.9
2014-Jul-25 18:33N 55°09' E 006°09'1616.5
2014-Jul-25 17:33N 54°55' E 005°54'1716.6
2014-Jul-25 16:34N 54°41' E 005°38'1616.1
2014-Jul-25 15:33N 54°27' E 005°23'1615.9
2014-Jul-25 14:33N 54°14' E 005°08'1615.7
2014-Jul-25 13:33N 53°60' E 004°57'1616.1
2014-Jul-25 12:33N 53°44' E 004°52'1515.4
2014-Jul-25 11:33N 53°29' E 004°45'1514.9
2014-Jul-25 10:32N 53°15' E 004°35'1514.9
2014-Jul-25 09:33N 53°02' E 004°23'1515.1
2014-Jul-25 08:34N 52°49' E 004°11'1515.2
2014-Jul-25 07:33N 52°38' E 003°55'1515.0
2014-Jul-25 06:34N 52°27' E 003°38'3 3.4
2014-Jul-25 05:33N 52°26' E 003°32'3 2.8
2014-Jul-25 04:33N 52°26' E 003°37'1915.2
2014-Jul-25 03:18N 52°08' E 003°27'1216.4
2014-Jul-25 02:33N 51°56' E 003°22'1414.2
2014-Jul-25 01:33N 51°42' E 003°18'1616.1
2014-Jul-25 00:34N 51°28' E 003°31'1111.4
2014-Jul-24 23:34N 51°22' E 003°46'3 3.2
2014-Jul-24 22:34N 51°19' E 003°50'4 4.3
2014-Jul-24 21:33N 51°15' E 003°49'5 5.3
2014-Jul-24 20:33N 51°10' E 003°47'0 0.0
2014-Jul-24 19:32N 51°10' E 003°47'0 0.0
2014-Jul-24 18:32N 51°10' E 003°47'0 0.0
2014-Jul-24 17:32N 51°10' E 003°47'0 0.0
2014-Jul-24 16:32N 51°10' E 003°47'0 0.0
2014-Jul-24 15:32N 51°10' E 003°47'0 0.0
2014-Jul-24 14:32N 51°10' E 003°47'0 0.0
2014-Jul-24 13:32N 51°10' E 003°47'0 0.0
2014-Jul-24 12:32N 51°10' E 003°47'0 0.0
2014-Jul-24 11:26N 51°10' E 003°47'0 0.0
2014-Jul-24 10:32N 51°10' E 003°47'0 0.0
2014-Jul-24 09:32N 51°10' E 003°47'0 0.0
2014-Jul-24 08:32N 51°10' E 003°47'0 0.0
2014-Jul-24 07:32N 51°10' E 003°47'0 0.0
2014-Jul-24 06:32N 51°10' E 003°47'0 0.0
2014-Jul-24 05:32N 51°10' E 003°47'0 0.0
2014-Jul-24 04:32N 51°10' E 003°47'2 2.3
2014-Jul-24 03:34N 51°12' E 003°48'7 7.2
2014-Jul-24 02:34N 51°19' E 003°50'1 1.4
2014-Jul-24 01:34N 51°20' E 003°49'1 0.6
2014-Jul-24 00:33N 51°21' E 003°48'8 8.2
2014-Jul-23 23:34N 51°26' E 003°39'1312.6
2014-Jul-23 22:33N 51°24' E 003°19'1817.6
2014-Jul-23 21:33N 51°22' E 002°51'1615.9
2014-Jul-23 20:33N 51°21' E 002°26'1515.2
2014-Jul-23 19:33N 51°23' E 002°02'1515.1
2014-Jul-23 18:33N 51°29' E 001°39'1413.8
2014-Jul-23 17:33N 51°29' E 001°17'1515.2
2014-Jul-23 16:34N 51°29' E 000°53'6 5.1
2014-Jul-23 15:27N 51°26' E 000°44'0 0.0
2014-Jul-23 14:33N 51°26' E 000°44'0 0.0
2014-Jul-23 13:33N 51°26' E 000°44'0 0.0
2014-Jul-23 12:33N 51°26' E 000°44'0 0.0
2014-Jul-23 11:30N 51°26' E 000°44'0 0.0
2014-Jul-23 10:33N 51°26' E 000°44'0 0.0
2014-Jul-23 09:33N 51°26' E 000°44'0 0.0
2014-Jul-23 08:33N 51°26' E 000°44'0 0.0
2014-Jul-23 07:31N 51°26' E 000°44'5 5.7
2014-Jul-23 06:34N 51°29' E 000°52'1616.2
2014-Jul-23 05:33N 51°29' E 001°18'1110.7
2014-Jul-23 04:33N 51°30' E 001°35'1515.2
2014-Jul-23 03:33N 51°44' E 001°44'1615.7
2014-Jul-23 02:33N 51°60' E 001°46'1515.3
2014-Jul-23 01:33N 52°15' E 001°50'1515.2
2014-Jul-23 00:33N 52°30' E 001°54'1514.8
2014-Jul-22 23:34N 52°45' E 001°55'1514.6
2014-Jul-22 22:33N 52°55' E 001°38'1413.7
2014-Jul-22 21:33N 53°06' E 001°24'1414.3
2014-Jul-22 20:33N 53°19' E 001°12'1414.4
2014-Jul-22 19:33N 53°31' E 000°60'1414.2
2014-Jul-22 18:33N 53°43' E 000°47'1414.4
2014-Jul-22 17:33N 53°53' E 000°30'1514.5
2014-Jul-22 16:33N 54°04' E 000°13'1515.1
2014-Jul-22 15:33N 54°15' W 000°05'1515.4
2014-Jul-22 14:33N 54°26' W 000°23'1615.4
2014-Jul-22 13:32N 54°35' W 000°44'1212.7
2014-Jul-22 12:33N 54°40' W 001°05'4 3.5
2014-Jul-22 11:19N 54°36' W 001°09'0 0.0
2014-Jul-22 10:19N 54°36' W 001°09'0 0.0
2014-Jul-22 09:22N 54°36' W 001°09'0 0.0
2014-Jul-22 08:16N 54°36' W 001°09'0 0.0
2014-Jul-22 06:25N 54°36' W 001°09'0 0.0
2014-Jul-22 05:25N 54°36' W 001°09'4 3.1
2014-Jul-22 04:10N 54°40' W 001°08'5 8.6
2014-Jul-22 03:33N 54°43' W 001°01'1812.4
2014-Jul-22 02:03N 54°51' W 000°31'612.4
2014-Jul-22 01:33N 54°54' W 000°22'1312.8
2014-Jul-22 00:33N 54°59' W 000°02'1513.2
2014-Jul-21 23:25N 55°05' E 000°22'1213.6
2014-Jul-21 22:33N 55°10' E 000°40'1413.5
2014-Jul-21 21:33N 55°17' E 001°02'33013.7
2014-Jul-20 21:24N 57°40' E 009°60'1315.6
2014-Jul-20 20:33N 57°44' E 010°23'1514.9
2014-Jul-20 19:33N 57°45' E 010°51'1616.1
2014-Jul-20 18:33N 57°34' E 011°13'1515.3
2014-Jul-20 17:33N 57°22' E 011°30'1615.7
2014-Jul-20 16:33N 57°07' E 011°40'1615.5
2014-Jul-20 15:33N 56°52' E 011°50'1615.8
2014-Jul-20 14:33N 56°38' E 011°58'1615.6
2014-Jul-20 13:33N 56°24' E 012°12'1616.4
2014-Jul-20 12:33N 56°10' E 012°29'1716.5
2014-Jul-20 11:33N 55°56' E 012°43'1515.4
2014-Jul-20 10:33N 55°41' E 012°41'1212.2
2014-Jul-20 09:33N 55°29' E 012°42'1212.4
2014-Jul-20 08:33N 55°17' E 012°48'1616.1
2014-Jul-20 07:33N 55°15' E 013°17'1616.4
2014-Jul-20 06:33N 55°14' E 013°45'  

Dump ship's entire track history